Latest Weather Observations for Richmond

IDN60801

Issued at 8:02 am EST Saturday 23 May 2015 (issued every 30 minutes, with the page automatically refreshed every 10 minutes)

About weather observations | Map of weather stations | Latest weather observations for NSW | Other Formats
Station Details ID: 067105 Name: RICHMOND RAAF Lat: -33.60 Lon: 150.78 Height: 19.0 m
Data from the previous 72 hours. | See also: Recent months at Richmond
Date/Time
EST
Temp
°C
App
Temp
°C
Dew
Point
Rel
Hum
%
Delta-T
°C
Wind Press
QNH
hPa
Press
MSL
hPa
Rain
since 9 am
mm
Dir
 
Spd
km/h
Gust
km/h
Spd
kts
Gust
kts
23/08:00am 11.0 9.2 7.3 78 1.8 NE 6 9 3 5 1029.1 1029.1 11.8
23/07:30am 9.6 8.9 7.0 84 1.2 CALM 0 7 0 4 1028.5 1028.5 11.8
23/07:00am 9.6 7.9 6.1 79 1.6 W 4 6 2 3 1028.2 1028.2 11.8
23/06:30am 10.1 7.9 6.4 78 1.7 SSW 7 9 4 5 1027.9 1027.9 11.8
23/06:00am 10.6 8.1 6.7 77 1.8 SW 9 11 5 6 1027.6 1027.6 11.8
23/05:30am 10.9 8.5 7.0 77 1.9 SW 9 15 5 8 1027.2 1027.2 11.8
23/05:00am 11.7 9.4 7.6 76 2.0 SW 9 13 5 7 1027.0 1027.0 11.8
23/04:30am 12.1 9.5 7.6 74 2.2 SSW 11 17 6 9 1026.8 1026.8 11.8
23/04:00am 12.6 9.3 7.9 73 2.3 SSW 15 20 8 11 1026.6 1026.6 11.8
23/03:30am 12.9 10.1 8.6 75 2.1 S 13 19 7 10 1026.6 1026.6 11.8
23/03:00am 12.4 10.6 9.4 82 1.5 SW 9 11 5 6 1026.9 1026.9 11.8
23/02:30am 12.1 9.6 9.7 85 1.2 SW 13 22 7 12 1027.0 1027.0 11.8
23/02:00am 12.2 9.3 9.6 84 1.3 SSW 15 20 8 11 1027.2 1027.2 11.8
23/01:30am 11.9 9.5 10.1 89 0.9 SSW 13 19 7 10 1027.2 1027.2 11.8
23/01:00am 12.3 9.9 10.0 86 1.2 SSW 13 20 7 11 1027.3 1027.3 11.8
23/12:56am 12.0 9.6 10.2 89 0.9 SSW 13 17 7 9 1027.2 1027.2 11.8
23/12:44am 11.9 8.3 9.8 87 1.1 SSW 19 30 10 16 1027.2 1027.2 11.8
23/12:30am 12.9 10.3 9.2 78 1.9 SSW 13 19 7 10 1027.0 1027.0 11.6
23/12:00am 12.8 10.0 8.7 76 2.0 SSW 13 19 7 10 1026.8 1026.8 11.6
 
Date/Time
EST
Temp
°C
App
Temp
°C
Dew
Point
Rel
Hum
%
Delta-T
°C
Wind Press
QNH
hPa
Press
MSL
hPa
Rain
since 9 am
mm
Dir
 
Spd
km/h
Gust
km/h
Spd
kts
Gust
kts
22/11:30pm 13.1 10.4 8.8 75 2.2 SSW 13 19 7 10 1026.8 1026.8 11.6
22/11:00pm 13.1 9.9 8.6 74 2.2 SW 15 20 8 11 1026.7 1026.7 11.6
22/10:30pm 13.3 11.3 8.8 74 2.3 SSW 9 13 5 7 1026.7 1026.7 11.6
22/10:00pm 13.3 11.4 9.0 75 2.2 SSW 9 13 5 7 1026.4 1026.4 11.6
22/09:30pm 13.0 11.2 9.3 78 1.9 SW 9 15 5 8 1026.5 1026.5 11.6
22/09:00pm 12.9 10.7 9.2 78 1.9 SSW 11 17 6 9 1026.0 1026.0 11.6
22/08:30pm 12.4 9.7 9.1 80 1.7 SW 13 17 7 9 1026.2 1026.2 11.6
22/08:00pm 12.8 8.9 9.4 80 1.7 SSW 20 35 11 19 1026.0 1026.0 11.6
22/07:30pm 13.1 9.2 9.5 79 1.8 SW 20 26 11 14 1025.5 1025.5 11.6
22/07:00pm 13.1 9.8 9.5 79 1.8 SW 17 22 9 12 1025.0 1025.0 11.6
22/06:30pm 13.4 11.0 10.2 81 1.7 SSW 13 19 7 10 1024.9 1024.9 11.6
22/06:00pm 13.4 11.1 10.6 83 1.5 SSW 13 20 7 11 1024.3 1024.3 11.6
22/05:30pm 13.0 10.5 10.9 87 1.1 SW 15 22 8 12 1023.8 1023.8 11.6
22/05:00pm 13.3 10.5 11.2 87 1.1 SSW 17 22 9 12 1023.5 1023.5 11.6
22/04:30pm 13.6 9.7 10.9 84 1.4 SSW 22 32 12 17 1023.1 1023.1 11.6
22/04:00pm 13.6 10.0 10.6 82 1.6 SSW 20 28 11 15 1022.7 1022.7 11.6
22/03:30pm 14.7 8.5 9.5 71 2.7 SSW 32 44 17 24 1022.0 1022.0 11.6
22/03:00pm 16.4 10.0 8.6 60 4.0 SSW 32 50 17 27 1021.4 1021.4 11.6
22/02:30pm 16.4 9.5 8.9 61 3.9 S 35 54 19 29 1020.9 1020.9 11.6
22/02:10pm 15.8 9.7 9.7 67 3.2 S 32 50 17 27 1020.8 1020.8 11.6
22/02:00pm 16.0 10.1 10.3 69 3.0 S 32 43 17 23 1020.7 1020.7 11.6
22/01:30pm 15.6 9.7 10.6 72 2.6 S 32 50 17 27 1020.4 1020.4 11.6
22/01:28pm 15.6 9.7 10.6 72 2.6 SSW 32 50 17 27 1020.4 1020.4 11.6
22/01:00pm 15.6 12.3 12.7 83 1.6 SSW 22 32 12 17 1019.9 1019.9 11.6
22/12:30pm 14.1 9.9 12.5 90 0.9 S 26 37 14 20 1019.9 1019.9 11.6
22/12:11pm 13.8 8.4 12.2 90 0.9 SSW 32 46 17 25 1019.7 1019.7 11.6
22/12:00pm 13.7 8.8 12.6 93 0.6 SSW 30 43 16 23 1019.6 1019.6 11.6
22/11:54am 13.7 10.1 12.9 95 0.4 SSW 24 43 13 23 1019.5 1019.5 11.6
22/11:30am 13.6 10.7 13.0 96 0.3 SW 20 28 11 15 1019.3 1019.3 10.6
22/11:11am 13.2 10.8 12.6 96 0.3 SW 17 24 9 13 1019.3 1019.3 10.2
22/11:00am 13.1 10.7 12.6 97 0.3 SW 17 24 9 13 1019.4 1019.4 9.6
22/10:33am 13.3 10.5 12.5 95 0.4 SSW 19 28 10 15 1019.3 1019.3 5.0
22/10:30am 13.3 10.5 12.5 95 0.4 SW 19 26 10 14 1019.2 1019.2 4.6
22/10:00am 13.4 10.3 12.3 93 0.6 SW 20 32 11 17 1018.9 1018.9 1.6
22/09:30am 13.7 10.8 12.4 92 0.7 SW 19 28 10 15 1018.4 1018.4 0.4
22/09:00am 13.3 10.3 11.9 91 0.7 SW 19 32 10 17 1018.2 1018.2 3.4
22/08:30am 13.1 10.3 11.3 89 1.0 SSW 17 24 9 13 1018.0 1018.0 1.6
22/08:00am 14.2 10.5 10.2 77 2.1 SSW 20 32 11 17 1017.5 1017.5 0.2
22/07:30am 14.8 11.5 9.4 70 2.8 SW 17 26 9 14 1016.9 1016.9 0.2
22/07:00am 14.5 11.9 9.5 72 2.6 SW 13 19 7 10 1016.8 1016.8 0.2
22/06:30am 14.5 11.1 9.3 71 2.7 SW 17 24 9 13 1016.5 1016.5 0.2
22/06:00am 14.4 11.1 9.4 72 2.6 SSW 17 24 9 13 1016.4 1016.4 0.2
22/05:30am 13.7 11.5 9.4 75 2.2 SW 11 15 6 8 1016.0 1016.0 0.2
22/05:00am 12.9 12.8 9.5 80 1.7 CALM 0 6 0 3 1016.0 1016.0 0.2
22/04:30am 12.5 11.3 9.5 82 1.5 W 6 7 3 4 1016.1 1016.1 0.2
22/04:00am 12.5 10.6 9.1 80 1.7 SSW 9 13 5 7 1016.0 1016.0 0.2
22/03:30am 12.0 11.7 10.1 88 1.0 SW 2 9 1 5 1016.2 1016.2 0.2
22/03:00am 10.9 10.4 9.3 90 0.8 SW 2 6 1 3 1016.6 1016.6 0.2
22/02:30am 12.3 11.2 10.0 86 1.2 W 6 7 3 4 1016.6 1016.6 0.2
22/02:00am 12.4 11.8 10.3 87 1.1 N 4 6 2 3 1016.9 1016.9 0.2
22/01:30am 12.4 12.6 10.5 88 1.0 CALM 0 0 0 0 1017.1 1017.1 0.2
22/01:00am 12.0 12.2 10.6 91 0.7 CALM 0 0 0 0 1017.3 1017.3 0.2
22/12:30am 12.6 11.3 9.2 80 1.7 WSW 6 9 3 5 1017.4 1017.4 0.2
22/12:00am 13.5 12.4 10.1 80 1.8 SW 6 9 3 5 1017.3 1017.3 0.2
 
Date/Time
EST
Temp
°C
App
Temp
°C
Dew
Point
Rel
Hum
%
Delta-T
°C
Wind Press
QNH
hPa
Press
MSL
hPa
Rain
since 9 am
mm
Dir
 
Spd
km/h
Gust
km/h
Spd
kts
Gust
kts
21/11:30pm 13.6 12.5 10.0 79 1.9 SSW 6 9 3 5 1017.5 1017.5 0.2
21/11:00pm 13.3 13.1 10.3 82 1.6 SW 2 6 1 3 1017.7 1017.7 0.2
21/10:30pm 13.4 12.4 10.4 82 1.6 WSW 6 7 3 4 1018.0 1018.0 0.2
21/10:00pm 14.0 13.1 10.8 81 1.7 WSW 6 7 3 4 1018.0 1018.0 0.2
21/09:30pm 14.9 13.9 11.1 78 2.0 SW 7 11 4 6 1018.1 1018.1 0.2
21/09:00pm 15.0 14.1 11.4 79 1.9 SW 7 11 4 6 1018.2 1018.2 0.2
21/08:30pm 15.0 13.7 11.2 78 2.0 SW 9 13 5 7 1018.0 1018.0 0.2
21/08:00pm 15.3 14.3 11.1 76 2.2 SSW 7 11 4 6 1017.9 1017.9 0.2
21/07:30pm 15.2 14.2 10.4 73 2.5 SSW 6 9 3 5 1017.9 1017.9 0.2
21/07:00pm 15.3 13.7 10.1 71 2.7 SW 9 9 5 5 1017.9 1017.9 0.2
21/06:30pm 16.3 15.0 9.9 66 3.4 S 7 9 4 5 1017.7 1017.7 0.2
21/06:00pm 17.2 15.2 10.1 63 3.8 SSE 11 17 6 9 1017.3 1017.3 0.2
21/05:30pm 17.8 14.7 10.2 61 4.0 SSE 17 22 9 12 1016.9 1016.9 0.2
21/05:00pm 17.9 16.0 10.5 62 4.0 SSE 11 15 6 8 1016.8 1016.8 0.2
21/04:30pm 18.2 16.0 10.8 62 4.0 SE 13 17 7 9 1016.6 1016.6 0.2
21/04:00pm 18.9 15.3 10.5 58 4.5 SSE 20 24 11 13 1016.7 1016.7 0.2
21/03:30pm 20.9 18.3 7.9 43 6.7 S 11 15 6 8 1016.6 1016.6 0.2
21/03:00pm 20.9 17.7 6.8 40 7.2 S 13 19 7 10 1016.5 1016.5 0.2
21/02:30pm 21.3 18.9 7.2 40 7.2 SSE 9 17 5 9 1016.4 1016.4 0.2
21/02:00pm 20.9 18.0 6.4 39 7.3 SSW 11 17 6 9 1016.5 1016.5 0.2
21/01:30pm 20.9 18.9 6.4 39 7.3 SSE 6 11 3 6 1016.7 1016.7 0.2
21/01:00pm 21.1 19.4 8.4 44 6.6 SSE 7 15 4 8 1017.0 1017.0 0.2
21/12:30pm 20.4 18.1 9.0 48 6.0 SSW 11 17 6 9 1017.4 1017.4 0.2
21/12:00pm 20.6 19.6 11.0 54 5.3 NW 7 15 4 8 1017.9 1017.9 0.0
21/11:30am 19.7 18.3 10.9 57 4.8 SSW 9 15 5 8 1018.4 1018.4 0.0
21/11:00am 19.0 18.0 10.3 57 4.7 WSW 6 11 3 6 1018.8 1018.8 0.0
21/10:30am 18.6 18.5 10.9 61 4.2 WNW 2 7 1 4 1019.1 1019.1 0.0
21/10:00am 17.7 17.1 12.2 70 3.0 NNE 7 9 4 5 1019.2 1019.2 0.0
21/09:30am 16.7 15.7 12.3 75 2.4 NE 9 13 5 7 1019.2 1019.2 0.0
21/09:00am 16.6 17.0 12.6 77 2.2 SW 2 6 1 3 1018.9 1018.9 0.2
21/08:30am 14.5 14.0 12.2 86 1.2 ENE 6 11 3 6 1018.7 1018.7 0.2
21/08:00am 12.7 13.1 12.4 98 0.2 NNW 2 7 1 4 1018.5 1018.5 0.2
21/07:30am 11.0 9.9 10.7 98 0.2 N 7 9 4 5 1018.2 1018.2 0.2
21/07:00am 10.3 9.6 10.0 98 0.2 N 4 6 2 3 1018.1 1018.1 0.2
21/06:37am 10.3 8.6 10.0 98 0.2 SW 9 13 5 7 1017.8 1017.8 0.2
21/06:31am 10.0 8.3 9.7 98 0.2 SW 9 13 5 7 1017.9 1017.9 0.2
21/06:30am 10.0 8.3 9.7 98 0.2 SW 9 13 5 7 1017.9 1017.9 0.2
21/06:08am 10.2 10.2 9.9 98 0.2 CALM 0 0 0 0 1017.8 1017.8 0.2
21/06:00am 10.8 10.6 10.5 98 0.2 NW 2 7 1 4 1017.5 1017.5 0.2
21/05:57am 10.8 10.6 10.5 98 0.2 NW 2 7 1 4 1017.5 1017.5 0.2
21/05:50am 11.2 11.5 10.9 98 0.2 CALM 0 7 0 4 1017.4 1017.4 0.2
21/05:44am 11.1 11.4 10.8 98 0.2 CALM 0 0 0 0 1017.4 1017.4 0.2
21/05:35am 11.8 12.3 11.5 98 0.2 CALM 0 0 0 0 1017.5 1017.5 0.2
21/05:30am 11.6 12.0 11.3 98 0.2 CALM 0 0 0 0 1017.5 1017.5 0.2
21/05:23am 11.2 11.5 10.9 98 0.2 CALM 0 0 0 0 1017.4 1017.4 0.2
21/05:00am 11.3 11.6 11.0 98 0.2 CALM 0 0 0 0 1017.1 1017.1 0.2
21/04:47am 11.2 10.4 10.9 98 0.2 NNW 6 9 3 5 1016.9 1016.9 0.2
21/04:30am 11.9 12.0 11.6 98 0.2 NE 2 7 1 4 1016.7 1016.7 0.2
21/04:22am 12.0 12.5 11.5 97 0.3 CALM 0 0 0 0 1016.5 1016.5 0.2
21/04:14am 12.5 13.2 12.2 98 0.2 CALM 0 0 0 0 1016.5 1016.5 0.2
21/04:00am 12.5 12.2 11.6 94 0.5 NE 4 6 2 3 1016.5 1016.5 0.2
21/03:30am 12.8 12.1 11.4 91 0.7 NNE 6 9 3 5 1016.6 1016.6 0.2
21/03:00am 14.3 14.0 12.7 90 0.9 SSE 6 7 3 4 1016.4 1016.4 0.2
21/02:30am 15.3 14.4 12.6 84 1.5 NNW 9 11 5 6 1016.8 1016.8 0.2
21/02:00am 15.3 15.1 13.1 87 1.2 NNW 6 11 3 6 1016.9 1016.9 0.2
21/01:30am 15.9 15.8 13.9 88 1.1 SSE 7 9 4 5 1016.7 1016.7 0.2
21/01:00am 16.2 15.2 13.3 83 1.6 W 11 15 6 8 1017.0 1017.0 0.2
21/12:30am 15.8 15.7 13.8 88 1.1 NNE 7 9 4 5 1016.5 1016.5 0.2
21/12:00am 16.9 16.4 13.8 82 1.8 N 9 11 5 6 1016.6 1016.6 0.2
 
Date/Time
EST
Temp
°C
App
Temp
°C
Dew
Point
Rel
Hum
%
Delta-T
°C
Wind Press
QNH
hPa
Press
MSL
hPa
Rain
since 9 am
mm
Dir
 
Spd
km/h
Gust
km/h
Spd
kts
Gust
kts
20/11:30pm 16.6 16.4 13.7 83 1.6 N 7 11 4 6 1016.5 1016.5 0.2
20/11:00pm 16.4 16.1 12.8 79 2.0 N 6 9 3 5 1016.6 1016.6 0.2
20/10:30pm 16.9 15.8 13.0 78 2.2 N 11 13 6 7 1016.7 1016.7 0.2
20/10:00pm 16.2 14.8 13.3 83 1.6 N 13 19 7 10 1016.8 1016.8 0.2
20/09:30pm 16.8 15.8 13.3 80 2.0 W 11 13 6 7 1016.5 1016.5 0.2
20/09:00pm 16.5 17.9 14.5 88 1.1 CALM 0 0 0 0 1016.3 1016.3 0.2
20/08:30pm 17.3 18.9 14.9 86 1.4 CALM 0 0 0 0 1016.1 1016.1 0.2
20/08:00pm 17.5 19.0 14.6 83 1.7 CALM 0 6 0 3 1015.6 1015.6 0.2
20/07:30pm 18.1 17.9 14.6 80 2.0 W 9 13 5 7 1015.5 1015.5 0.2
20/07:00pm 17.9 18.1 15.7 87 1.3 SW 9 11 5 6 1015.3 1015.3 0.2
20/06:30pm 18.2 18.9 15.5 84 1.6 W 6 7 3 4 1014.6 1014.6 0.2
20/06:00pm 18.8 19.1 15.9 83 1.7 WSW 9 13 5 7 1014.2 1014.2 0.2
20/05:30pm 19.2 18.9 15.5 79 2.2 NNE 11 13 6 7 1013.5 1013.5 0.2
20/05:00pm 20.3 21.7 15.3 73 3.0 E 2 9 1 5 1013.7 1013.7 0.2
20/04:30pm 21.2 21.8 15.7 71 3.3 NNE 7 11 4 6 1013.6 1013.6 0.2
20/04:00pm 22.2 21.9 15.5 66 4.0 NNE 11 15 6 8 1013.5 1013.5 0.2
20/03:30pm 23.7 23.0 14.4 56 5.5 N 11 13 6 7 1013.1 1013.1 0.2
20/03:00pm 23.9 23.7 14.6 56 5.5 NNE 9 17 5 9 1012.9 1012.9 0.2
20/02:30pm 23.6 23.2 14.0 55 5.6 N 9 13 5 7 1013.0 1013.0 0.2
20/02:00pm 23.9 23.4 13.7 53 6.0 NNW 9 13 5 7 1013.3 1013.3 0.2
20/01:30pm 22.7 20.6 13.5 56 5.3 N 17 22 9 12 1013.4 1013.4 0.2
20/01:00pm 24.0 21.7 14.1 54 5.8 NNW 19 26 10 14 1013.3 1013.3 0.2
20/12:30pm 23.9 22.3 15.1 58 5.3 N 17 20 9 11 1013.7 1013.7 0.2
20/12:00pm 23.1 21.6 15.4 62 4.6 N 17 24 9 13 1014.0 1014.0 0.0
20/11:30am 22.1 21.8 14.5 62 4.5 N 9 11 5 6 1014.8 1014.8 0.0
20/11:00am 22.4 23.6 14.8 62 4.5 NNW 2 7 1 4 1015.1 1015.1 0.0
20/10:30am 20.7 20.3 14.1 66 3.8 NE 9 13 5 7 1015.6 1015.6 0.0
20/10:00am 18.7 18.4 14.4 76 2.5 NE 9 11 5 6 1016.0 1016.0 0.0
20/09:30am 16.8 17.6 14.8 88 1.2 NNE 4 9 2 5 1016.2 1016.2 0.0
20/09:00am 15.5 16.6 14.7 95 0.5 ENE 2 7 1 4 1016.2 1016.2 2.2
20/08:30am 14.8 15.8 14.2 96 0.3 S 2 6 1 3 1016.1 1016.1 2.2

Other Formats:

Comma delimited format used in spreadsheet applications
http://www.bom.gov.au/fwo/IDN60801/IDN60801.95753.axf

JavaScript Object Notation format (JSON) in row-major order
http://www.bom.gov.au/fwo/IDN60801/IDN60801.95753.json